Terminal Aerodrome Forecast
Issued by NWS

Home | Current Version | Previous Version | Graphics & Text | Print | Product List | Glossary On
Versions: 1 2 3 4 5 6 7 8 9 10 11 12 13 14 15 16 17 18 19 20 21
000
FTUS43 KABR 192336
TAFMBG
TAF
KMBG 192336Z 2000/2024 13010KT P6SM BKN250
     FM200600 15007KT P6SM VCSH OVC090
     FM200800 26007KT P6SM VCSH OVC110
     FM200900 30007KT P6SM BKN120=

USA.gov is the U.S. government's official web portal to all federal, state and local government web resources and services.